sensor_id;sensor_type;location;lat;lon;timestamp;temperature;humidity
1700;DHT22;847;48.058;7.810;2023-02-28T00:01:14;1.20;76.30
1700;DHT22;847;48.058;7.810;2023-02-28T00:03:43;1.20;75.90
1700;DHT22;847;48.058;7.810;2023-02-28T00:06:10;1.20;75.80
1700;DHT22;847;48.058;7.810;2023-02-28T00:08:37;1.20;76.20
1700;DHT22;847;48.058;7.810;2023-02-28T00:11:06;1.20;76.00
1700;DHT22;847;48.058;7.810;2023-02-28T00:13:35;1.10;75.50
1700;DHT22;847;48.058;7.810;2023-02-28T00:16:03;1.10;75.60
1700;DHT22;847;48.058;7.810;2023-02-28T00:18:30;1.10;75.90
1700;DHT22;847;48.058;7.810;2023-02-28T00:20:59;1.10;76.20
1700;DHT22;847;48.058;7.810;2023-02-28T00:23:27;1.00;76.50
1700;DHT22;847;48.058;7.810;2023-02-28T00:25:56;1.10;77.00
1700;DHT22;847;48.058;7.810;2023-02-28T00:28:24;1.20;76.40
1700;DHT22;847;48.058;7.810;2023-02-28T00:30:51;1.20;76.30
1700;DHT22;847;48.058;7.810;2023-02-28T00:33:18;1.10;76.40
1700;DHT22;847;48.058;7.810;2023-02-28T00:35:44;1.20;76.60
1700;DHT22;847;48.058;7.810;2023-02-28T00:38:14;1.20;77.10
1700;DHT22;847;48.058;7.810;2023-02-28T00:40:41;1.10;77.30
1700;DHT22;847;48.058;7.810;2023-02-28T00:43:08;1.10;76.90
1700;DHT22;847;48.058;7.810;2023-02-28T00:45:35;1.20;77.00
1700;DHT22;847;48.058;7.810;2023-02-28T00:48:01;1.10;76.70
1700;DHT22;847;48.058;7.810;2023-02-28T00:50:29;1.10;77.00
1700;DHT22;847;48.058;7.810;2023-02-28T00:52:56;1.10;77.00
1700;DHT22;847;48.058;7.810;2023-02-28T00:55:24;1.20;77.00
1700;DHT22;847;48.058;7.810;2023-02-28T00:57:51;1.10;77.30
1700;DHT22;847;48.058;7.810;2023-02-28T01:00:19;1.20;76.60
1700;DHT22;847;48.058;7.810;2023-02-28T01:02:46;1.30;76.40
1700;DHT22;847;48.058;7.810;2023-02-28T01:05:12;1.30;76.50
1700;DHT22;847;48.058;7.810;2023-02-28T01:07:39;1.10;77.00
1700;DHT22;847;48.058;7.810;2023-02-28T01:10:07;1.10;77.00
1700;DHT22;847;48.058;7.810;2023-02-28T01:12:36;1.10;77.40
1700;DHT22;847;48.058;7.810;2023-02-28T01:15:04;1.10;76.50
1700;DHT22;847;48.058;7.810;2023-02-28T01:17:31;1.10;76.70
1700;DHT22;847;48.058;7.810;2023-02-28T01:19:58;1.10;77.10
1700;DHT22;847;48.058;7.810;2023-02-28T01:22:25;1.00;77.70
1700;DHT22;847;48.058;7.810;2023-02-28T01:24:52;0.90;77.60
1700;DHT22;847;48.058;7.810;2023-02-28T01:27:19;0.90;77.70
1700;DHT22;847;48.058;7.810;2023-02-28T01:29:47;0.90;77.90
1700;DHT22;847;48.058;7.810;2023-02-28T01:32:14;0.90;78.30
1700;DHT22;847;48.058;7.810;2023-02-28T01:34:41;1.00;77.80
1700;DHT22;847;48.058;7.810;2023-02-28T01:37:08;1.00;78.00
1700;DHT22;847;48.058;7.810;2023-02-28T01:39:35;0.80;78.70
1700;DHT22;847;48.058;7.810;2023-02-28T01:42:02;0.80;78.50
1700;DHT22;847;48.058;7.810;2023-02-28T01:44:57;0.90;78.30
1700;DHT22;847;48.058;7.810;2023-02-28T01:47:25;0.90;78.30
1700;DHT22;847;48.058;7.810;2023-02-28T01:49:53;0.90;78.30
1700;DHT22;847;48.058;7.810;2023-02-28T01:52:22;0.90;78.20
1700;DHT22;847;48.058;7.810;2023-02-28T01:54:52;0.80;78.60
1700;DHT22;847;48.058;7.810;2023-02-28T01:57:22;0.80;78.50
1700;DHT22;847;48.058;7.810;2023-02-28T01:59:52;0.90;78.60
1700;DHT22;847;48.058;7.810;2023-02-28T02:02:22;0.90;79.10
1700;DHT22;847;48.058;7.810;2023-02-28T02:04:53;0.90;78.90
1700;DHT22;847;48.058;7.810;2023-02-28T02:07:21;0.90;79.40
1700;DHT22;847;48.058;7.810;2023-02-28T02:09:48;0.90;79.00
1700;DHT22;847;48.058;7.810;2023-02-28T02:12:27;1.00;78.60
1700;DHT22;847;48.058;7.810;2023-02-28T02:15:04;1.10;78.20
1700;DHT22;847;48.058;7.810;2023-02-28T02:17:38;1.00;78.60
1700;DHT22;847;48.058;7.810;2023-02-28T02:23:25;0.90;79.70
1700;DHT22;847;48.058;7.810;2023-02-28T02:25:55;0.90;79.80
1700;DHT22;847;48.058;7.810;2023-02-28T02:28:46;0.90;79.50
1700;DHT22;847;48.058;7.810;2023-02-28T02:31:55;0.90;79.70
1700;DHT22;847;48.058;7.810;2023-02-28T02:34:39;0.90;80.00
1700;DHT22;847;48.058;7.810;2023-02-28T02:37:15;0.90;80.40
1700;DHT22;847;48.058;7.810;2023-02-28T02:39:50;0.90;80.40
1700;DHT22;847;48.058;7.810;2023-02-28T02:42:21;0.90;80.40
1700;DHT22;847;48.058;7.810;2023-02-28T02:44:55;0.90;80.40
1700;DHT22;847;48.058;7.810;2023-02-28T02:47:26;0.90;80.30
1700;DHT22;847;48.058;7.810;2023-02-28T02:50:01;0.90;80.60
1700;DHT22;847;48.058;7.810;2023-02-28T02:52:34;0.90;81.20
1700;DHT22;847;48.058;7.810;2023-02-28T02:55:04;0.90;81.30
1700;DHT22;847;48.058;7.810;2023-02-28T02:57:45;0.80;81.50
1700;DHT22;847;48.058;7.810;2023-02-28T03:00:14;0.70;81.70
1700;DHT22;847;48.058;7.810;2023-02-28T03:02:43;0.80;81.80
1700;DHT22;847;48.058;7.810;2023-02-28T03:05:19;0.80;81.70
1700;DHT22;847;48.058;7.810;2023-02-28T03:07:46;0.70;82.40
1700;DHT22;847;48.058;7.810;2023-02-28T03:10:30;0.70;82.10
1700;DHT22;847;48.058;7.810;2023-02-28T03:15:55;0.80;81.70
1700;DHT22;847;48.058;7.810;2023-02-28T03:18:33;0.80;82.10
1700;DHT22;847;48.058;7.810;2023-02-28T03:21:13;0.60;82.80
1700;DHT22;847;48.058;7.810;2023-02-28T03:23:47;0.70;82.60
1700;DHT22;847;48.058;7.810;2023-02-28T03:26:20;0.80;82.20
1700;DHT22;847;48.058;7.810;2023-02-28T03:28:52;0.90;82.30
1700;DHT22;847;48.058;7.810;2023-02-28T03:31:27;0.80;82.40
1700;DHT22;847;48.058;7.810;2023-02-28T03:34:01;0.80;82.10
1700;DHT22;847;48.058;7.810;2023-02-28T03:36:35;0.80;82.20
1700;DHT22;847;48.058;7.810;2023-02-28T03:39:13;0.80;82.60
1700;DHT22;847;48.058;7.810;2023-02-28T03:41:47;0.80;83.40
1700;DHT22;847;48.058;7.810;2023-02-28T03:44:19;0.90;82.90
1700;DHT22;847;48.058;7.810;2023-02-28T03:46:54;0.80;82.70
1700;DHT22;847;48.058;7.810;2023-02-28T03:49:24;0.70;82.90
1700;DHT22;847;48.058;7.810;2023-02-28T03:51:57;0.80;82.80
1700;DHT22;847;48.058;7.810;2023-02-28T03:54:29;0.90;82.80
1700;DHT22;847;48.058;7.810;2023-02-28T03:56:59;0.80;83.10
1700;DHT22;847;48.058;7.810;2023-02-28T03:59:34;0.80;83.30
1700;DHT22;847;48.058;7.810;2023-02-28T04:02:01;0.80;83.60
1700;DHT22;847;48.058;7.810;2023-02-28T04:04:28;0.80;83.60
1700;DHT22;847;48.058;7.810;2023-02-28T04:07:03;0.70;84.20
1700;DHT22;847;48.058;7.810;2023-02-28T04:09:32;0.50;84.70
1700;DHT22;847;48.058;7.810;2023-02-28T04:12:00;0.60;84.10
1700;DHT22;847;48.058;7.810;2023-02-28T04:14:27;0.60;84.50
1700;DHT22;847;48.058;7.810;2023-02-28T04:16:54;0.60;84.30
1700;DHT22;847;48.058;7.810;2023-02-28T04:19:21;0.70;84.20
1700;DHT22;847;48.058;7.810;2023-02-28T04:21:50;0.70;84.30
1700;DHT22;847;48.058;7.810;2023-02-28T04:24:22;0.70;83.60
1700;DHT22;847;48.058;7.810;2023-02-28T04:26:51;0.80;82.60
1700;DHT22;847;48.058;7.810;2023-02-28T04:29:24;0.80;82.90
1700;DHT22;847;48.058;7.810;2023-02-28T04:31:52;0.70;82.90
1700;DHT22;847;48.058;7.810;2023-02-28T04:34:20;0.70;83.30
1700;DHT22;847;48.058;7.810;2023-02-28T04:36:49;0.60;83.50
1700;DHT22;847;48.058;7.810;2023-02-28T04:39:17;0.70;83.70
1700;DHT22;847;48.058;7.810;2023-02-28T04:41:45;0.70;83.40
1700;DHT22;847;48.058;7.810;2023-02-28T04:44:14;0.70;82.90
1700;DHT22;847;48.058;7.810;2023-02-28T04:46:44;0.70;83.60
1700;DHT22;847;48.058;7.810;2023-02-28T04:49:12;0.70;83.40
1700;DHT22;847;48.058;7.810;2023-02-28T04:51:39;0.60;83.60
1700;DHT22;847;48.058;7.810;2023-02-28T04:54:07;0.50;83.80
1700;DHT22;847;48.058;7.810;2023-02-28T04:56:37;0.50;84.20
1700;DHT22;847;48.058;7.810;2023-02-28T04:59:04;0.60;84.30
1700;DHT22;847;48.058;7.810;2023-02-28T05:01:32;0.60;84.30
1700;DHT22;847;48.058;7.810;2023-02-28T05:04:03;0.70;83.80
1700;DHT22;847;48.058;7.810;2023-02-28T05:06:33;0.60;84.00
1700;DHT22;847;48.058;7.810;2023-02-28T05:09:00;0.60;84.20
1700;DHT22;847;48.058;7.810;2023-02-28T05:11:28;0.50;84.50
1700;DHT22;847;48.058;7.810;2023-02-28T05:14:01;0.50;84.90
1700;DHT22;847;48.058;7.810;2023-02-28T05:16:28;0.60;84.50
1700;DHT22;847;48.058;7.810;2023-02-28T05:18:55;0.50;84.80
1700;DHT22;847;48.058;7.810;2023-02-28T05:21:25;0.50;85.10
1700;DHT22;847;48.058;7.810;2023-02-28T05:23:52;0.50;84.80
1700;DHT22;847;48.058;7.810;2023-02-28T05:26:20;0.50;84.90
1700;DHT22;847;48.058;7.810;2023-02-28T05:28:47;0.50;84.80
1700;DHT22;847;48.058;7.810;2023-02-28T05:31:16;0.50;84.90
1700;DHT22;847;48.058;7.810;2023-02-28T05:33:44;0.50;84.70
1700;DHT22;847;48.058;7.810;2023-02-28T05:36:11;0.50;84.70
1700;DHT22;847;48.058;7.810;2023-02-28T05:38:38;0.50;84.90
1700;DHT22;847;48.058;7.810;2023-02-28T05:41:06;0.50;85.10
1700;DHT22;847;48.058;7.810;2023-02-28T05:43:34;0.40;85.20
1700;DHT22;847;48.058;7.810;2023-02-28T05:46:03;0.50;85.30
1700;DHT22;847;48.058;7.810;2023-02-28T05:48:32;0.60;85.30
1700;DHT22;847;48.058;7.810;2023-02-28T05:51:00;0.50;85.20
1700;DHT22;847;48.058;7.810;2023-02-28T05:53:28;0.40;85.70
1700;DHT22;847;48.058;7.810;2023-02-28T05:55:55;0.50;85.90
1700;DHT22;847;48.058;7.810;2023-02-28T05:58:23;0.50;86.00
1700;DHT22;847;48.058;7.810;2023-02-28T06:00:55;0.50;85.70
1700;DHT22;847;48.058;7.810;2023-02-28T06:03:22;0.50;86.20
1700;DHT22;847;48.058;7.810;2023-02-28T06:05:50;0.50;86.50
1700;DHT22;847;48.058;7.810;2023-02-28T06:08:17;0.50;87.10
1700;DHT22;847;48.058;7.810;2023-02-28T06:10:45;0.50;87.70
1700;DHT22;847;48.058;7.810;2023-02-28T06:13:12;0.40;88.10
1700;DHT22;847;48.058;7.810;2023-02-28T06:15:39;0.40;88.50
1700;DHT22;847;48.058;7.810;2023-02-28T06:18:06;0.30;88.60
1700;DHT22;847;48.058;7.810;2023-02-28T06:20:34;0.30;89.20
1700;DHT22;847;48.058;7.810;2023-02-28T06:23:03;0.40;89.00
1700;DHT22;847;48.058;7.810;2023-02-28T06:25:30;0.40;89.40
1700;DHT22;847;48.058;7.810;2023-02-28T06:27:57;0.30;90.10
1700;DHT22;847;48.058;7.810;2023-02-28T06:30:25;0.20;91.00
1700;DHT22;847;48.058;7.810;2023-02-28T06:32:53;0.20;91.30
1700;DHT22;847;48.058;7.810;2023-02-28T06:35:20;0.20;91.40
1700;DHT22;847;48.058;7.810;2023-02-28T06:37:47;0.10;91.80
1700;DHT22;847;48.058;7.810;2023-02-28T06:40:16;0.10;92.20
1700;DHT22;847;48.058;7.810;2023-02-28T06:42:43;0.00;92.30
1700;DHT22;847;48.058;7.810;2023-02-28T06:45:11;-0.10;92.30
1700;DHT22;847;48.058;7.810;2023-02-28T06:47:39;0.00;92.60
1700;DHT22;847;48.058;7.810;2023-02-28T06:50:08;-0.10;92.40
1700;DHT22;847;48.058;7.810;2023-02-28T06:52:35;-0.10;92.60
1700;DHT22;847;48.058;7.810;2023-02-28T06:55:04;0.00;92.30
1700;DHT22;847;48.058;7.810;2023-02-28T06:57:33;0.10;91.80
1700;DHT22;847;48.058;7.810;2023-02-28T07:00:03;0.20;91.70
1700;DHT22;847;48.058;7.810;2023-02-28T07:02:31;0.20;91.40
1700;DHT22;847;48.058;7.810;2023-02-28T07:04:58;0.20;91.10
1700;DHT22;847;48.058;7.810;2023-02-28T07:07:25;0.10;91.40
1700;DHT22;847;48.058;7.810;2023-02-28T07:09:52;0.20;91.30
1700;DHT22;847;48.058;7.810;2023-02-28T07:12:18;0.10;90.70
1700;DHT22;847;48.058;7.810;2023-02-28T07:14:47;0.10;90.80
1700;DHT22;847;48.058;7.810;2023-02-28T07:17:14;0.20;91.00
1700;DHT22;847;48.058;7.810;2023-02-28T07:19:41;0.20;91.00
1700;DHT22;847;48.058;7.810;2023-02-28T07:22:08;0.30;90.50
1700;DHT22;847;48.058;7.810;2023-02-28T07:24:35;0.40;90.30
1700;DHT22;847;48.058;7.810;2023-02-28T07:27:02;0.40;89.80
1700;DHT22;847;48.058;7.810;2023-02-28T07:29:29;0.40;90.00
1700;DHT22;847;48.058;7.810;2023-02-28T07:31:57;0.50;90.00
1700;DHT22;847;48.058;7.810;2023-02-28T07:34:24;0.50;90.00
1700;DHT22;847;48.058;7.810;2023-02-28T07:36:53;0.50;89.50
1700;DHT22;847;48.058;7.810;2023-02-28T07:39:21;0.50;89.20
1700;DHT22;847;48.058;7.810;2023-02-28T07:41:48;0.50;89.00
1700;DHT22;847;48.058;7.810;2023-02-28T07:44:15;0.50;89.70
1700;DHT22;847;48.058;7.810;2023-02-28T07:46:42;0.50;89.90
1700;DHT22;847;48.058;7.810;2023-02-28T07:49:10;0.50;88.90
1700;DHT22;847;48.058;7.810;2023-02-28T07:51:37;0.60;89.60
1700;DHT22;847;48.058;7.810;2023-02-28T07:54:05;0.60;89.60
1700;DHT22;847;48.058;7.810;2023-02-28T07:56:32;0.60;89.80
1700;DHT22;847;48.058;7.810;2023-02-28T07:58:59;0.60;89.80
1700;DHT22;847;48.058;7.810;2023-02-28T08:01:27;0.60;89.20
1700;DHT22;847;48.058;7.810;2023-02-28T08:03:54;0.70;89.00
1700;DHT22;847;48.058;7.810;2023-02-28T08:06:24;0.70;89.00
1700;DHT22;847;48.058;7.810;2023-02-28T08:08:52;0.70;89.10
1700;DHT22;847;48.058;7.810;2023-02-28T08:11:21;0.70;88.90
1700;DHT22;847;48.058;7.810;2023-02-28T08:13:48;0.80;89.90
1700;DHT22;847;48.058;7.810;2023-02-28T08:16:15;0.80;89.60
1700;DHT22;847;48.058;7.810;2023-02-28T08:18:51;0.80;90.20
1700;DHT22;847;48.058;7.810;2023-02-28T08:21:19;0.80;89.70
1700;DHT22;847;48.058;7.810;2023-02-28T08:23:51;0.90;89.40
1700;DHT22;847;48.058;7.810;2023-02-28T08:26:18;0.80;89.30
1700;DHT22;847;48.058;7.810;2023-02-28T08:28:45;0.80;89.40
1700;DHT22;847;48.058;7.810;2023-02-28T08:31:15;0.90;89.00
1700;DHT22;847;48.058;7.810;2023-02-28T08:33:42;0.80;89.20
1700;DHT22;847;48.058;7.810;2023-02-28T08:36:10;0.90;89.60
1700;DHT22;847;48.058;7.810;2023-02-28T08:38:38;1.00;89.70
1700;DHT22;847;48.058;7.810;2023-02-28T08:41:08;1.00;88.70
1700;DHT22;847;48.058;7.810;2023-02-28T08:43:36;1.00;89.10
1700;DHT22;847;48.058;7.810;2023-02-28T08:46:04;1.00;89.00
1700;DHT22;847;48.058;7.810;2023-02-28T08:48:33;1.00;89.20
1700;DHT22;847;48.058;7.810;2023-02-28T08:51:02;1.10;89.20
1700;DHT22;847;48.058;7.810;2023-02-28T08:53:31;1.10;89.00
1700;DHT22;847;48.058;7.810;2023-02-28T08:56:07;1.10;89.40
1700;DHT22;847;48.058;7.810;2023-02-28T08:58:35;1.20;88.70
1700;DHT22;847;48.058;7.810;2023-02-28T09:01:08;1.30;88.40
1700;DHT22;847;48.058;7.810;2023-02-28T09:03:35;1.30;88.30
1700;DHT22;847;48.058;7.810;2023-02-28T09:06:02;1.30;88.60
1700;DHT22;847;48.058;7.810;2023-02-28T09:08:30;1.30;88.10
1700;DHT22;847;48.058;7.810;2023-02-28T09:10:58;1.40;88.70
1700;DHT22;847;48.058;7.810;2023-02-28T09:13:27;1.40;88.00
1700;DHT22;847;48.058;7.810;2023-02-28T09:15:57;1.50;88.30
1700;DHT22;847;48.058;7.810;2023-02-28T09:18:24;1.60;87.70
1700;DHT22;847;48.058;7.810;2023-02-28T09:20:52;1.70;87.60
1700;DHT22;847;48.058;7.810;2023-02-28T09:23:19;1.60;86.90
1700;DHT22;847;48.058;7.810;2023-02-28T09:25:48;1.70;87.30
1700;DHT22;847;48.058;7.810;2023-02-28T09:28:17;1.80;86.70
1700;DHT22;847;48.058;7.810;2023-02-28T09:30:47;1.80;86.70
1700;DHT22;847;48.058;7.810;2023-02-28T09:33:15;1.90;86.70
1700;DHT22;847;48.058;7.810;2023-02-28T09:35:42;2.00;85.50
1700;DHT22;847;48.058;7.810;2023-02-28T09:38:10;2.00;85.50
1700;DHT22;847;48.058;7.810;2023-02-28T09:40:39;2.10;85.70
1700;DHT22;847;48.058;7.810;2023-02-28T09:43:10;2.10;83.90
1700;DHT22;847;48.058;7.810;2023-02-28T09:45:41;2.00;83.20
1700;DHT22;847;48.058;7.810;2023-02-28T09:50:49;2.10;84.30
1700;DHT22;847;48.058;7.810;2023-02-28T09:53:22;2.20;84.20
1700;DHT22;847;48.058;7.810;2023-02-28T09:55:55;2.30;83.10
1700;DHT22;847;48.058;7.810;2023-02-28T09:58:28;2.40;81.30
1700;DHT22;847;48.058;7.810;2023-02-28T10:01:02;2.40;80.60
1700;DHT22;847;48.058;7.810;2023-02-28T10:03:32;2.40;80.70
1700;DHT22;847;48.058;7.810;2023-02-28T10:06:07;2.50;80.90
1700;DHT22;847;48.058;7.810;2023-02-28T10:08:37;2.50;80.30
1700;DHT22;847;48.058;7.810;2023-02-28T10:11:12;2.50;80.90
1700;DHT22;847;48.058;7.810;2023-02-28T10:13:51;2.60;80.80
1700;DHT22;847;48.058;7.810;2023-02-28T10:16:24;2.60;79.80
1700;DHT22;847;48.058;7.810;2023-02-28T10:18:56;2.70;80.30
1700;DHT22;847;48.058;7.810;2023-02-28T10:21:28;2.70;80.20
1700;DHT22;847;48.058;7.810;2023-02-28T10:24:03;2.70;80.20
1700;DHT22;847;48.058;7.810;2023-02-28T10:26:32;2.70;79.80
1700;DHT22;847;48.058;7.810;2023-02-28T10:29:00;2.70;80.10
1700;DHT22;847;48.058;7.810;2023-02-28T10:31:28;2.70;79.90
1700;DHT22;847;48.058;7.810;2023-02-28T10:33:55;2.80;79.80
1700;DHT22;847;48.058;7.810;2023-02-28T10:36:22;2.80;79.20
1700;DHT22;847;48.058;7.810;2023-02-28T10:38:50;2.80;79.50
1700;DHT22;847;48.058;7.810;2023-02-28T10:41:27;2.80;79.90
1700;DHT22;847;48.058;7.810;2023-02-28T10:44:14;2.80;79.50
1700;DHT22;847;48.058;7.810;2023-02-28T10:46:42;2.90;79.90
1700;DHT22;847;48.058;7.810;2023-02-28T10:49:15;2.90;79.60
1700;DHT22;847;48.058;7.810;2023-02-28T10:51:43;2.90;80.00
1700;DHT22;847;48.058;7.810;2023-02-28T10:54:18;3.00;80.00
1700;DHT22;847;48.058;7.810;2023-02-28T10:56:45;2.90;80.00
1700;DHT22;847;48.058;7.810;2023-02-28T10:59:28;3.00;80.50
1700;DHT22;847;48.058;7.810;2023-02-28T11:01:55;2.90;80.30
1700;DHT22;847;48.058;7.810;2023-02-28T11:04:34;2.80;80.40
1700;DHT22;847;48.058;7.810;2023-02-28T11:07:05;2.80;80.30
1700;DHT22;847;48.058;7.810;2023-02-28T11:09:35;2.90;80.70
1700;DHT22;847;48.058;7.810;2023-02-28T11:12:06;2.80;80.40
1700;DHT22;847;48.058;7.810;2023-02-28T11:14:42;2.70;80.60
1700;DHT22;847;48.058;7.810;2023-02-28T11:17:18;2.70;81.50
1700;DHT22;847;48.058;7.810;2023-02-28T11:19:51;2.70;81.00
1700;DHT22;847;48.058;7.810;2023-02-28T11:22:21;2.70;81.30
1700;DHT22;847;48.058;7.810;2023-02-28T11:24:53;2.70;81.80
1700;DHT22;847;48.058;7.810;2023-02-28T11:27:45;2.60;82.80
1700;DHT22;847;48.058;7.810;2023-02-28T11:30:35;2.60;82.40
1700;DHT22;847;48.058;7.810;2023-02-28T11:33:26;2.60;81.60
1700;DHT22;847;48.058;7.810;2023-02-28T11:35:57;2.70;81.70
1700;DHT22;847;48.058;7.810;2023-02-28T11:38:26;2.80;81.30
1700;DHT22;847;48.058;7.810;2023-02-28T11:41:06;2.70;82.10
1700;DHT22;847;48.058;7.810;2023-02-28T11:43:48;2.80;81.90
1700;DHT22;847;48.058;7.810;2023-02-28T11:46:25;2.90;81.90
1700;DHT22;847;48.058;7.810;2023-02-28T11:48:58;3.00;82.60
1700;DHT22;847;48.058;7.810;2023-02-28T11:51:33;3.00;82.00
1700;DHT22;847;48.058;7.810;2023-02-28T11:54:30;3.00;81.90
1700;DHT22;847;48.058;7.810;2023-02-28T11:57:14;3.10;81.40
1700;DHT22;847;48.058;7.810;2023-02-28T11:59:53;3.10;81.20
1700;DHT22;847;48.058;7.810;2023-02-28T12:02:30;3.00;81.70
1700;DHT22;847;48.058;7.810;2023-02-28T12:05:11;3.00;81.60
1700;DHT22;847;48.058;7.810;2023-02-28T12:07:49;3.10;81.40
1700;DHT22;847;48.058;7.810;2023-02-28T12:10:22;3.00;81.80
1700;DHT22;847;48.058;7.810;2023-02-28T12:13:05;3.10;81.30
1700;DHT22;847;48.058;7.810;2023-02-28T12:15:58;3.00;80.60
1700;DHT22;847;48.058;7.810;2023-02-28T12:21:26;3.10;81.70
1700;DHT22;847;48.058;7.810;2023-02-28T12:24:19;3.20;82.40
1700;DHT22;847;48.058;7.810;2023-02-28T12:26:51;3.20;80.90
1700;DHT22;847;48.058;7.810;2023-02-28T12:29:28;3.10;82.00
1700;DHT22;847;48.058;7.810;2023-02-28T12:32:01;3.20;81.90
1700;DHT22;847;48.058;7.810;2023-02-28T12:34:38;3.20;82.20
1700;DHT22;847;48.058;7.810;2023-02-28T12:37:08;3.20;81.50
1700;DHT22;847;48.058;7.810;2023-02-28T12:39:44;3.30;81.80
1700;DHT22;847;48.058;7.810;2023-02-28T12:42:22;3.30;80.90
1700;DHT22;847;48.058;7.810;2023-02-28T12:44:56;3.30;81.30
1700;DHT22;847;48.058;7.810;2023-02-28T12:47:29;3.40;82.10
1700;DHT22;847;48.058;7.810;2023-02-28T12:50:05;3.30;81.30
1700;DHT22;847;48.058;7.810;2023-02-28T12:52:41;3.40;81.50
1700;DHT22;847;48.058;7.810;2023-02-28T12:55:21;3.50;80.60
1700;DHT22;847;48.058;7.810;2023-02-28T12:57:57;3.50;80.50
1700;DHT22;847;48.058;7.810;2023-02-28T13:00:49;3.60;82.20
1700;DHT22;847;48.058;7.810;2023-02-28T13:03:42;3.70;81.00
1700;DHT22;847;48.058;7.810;2023-02-28T13:44:03;3.70;80.10
1700;DHT22;847;48.058;7.810;2023-02-28T13:54:24;4.10;80.00
1700;DHT22;847;48.058;7.810;2023-02-28T14:05:15;4.40;80.80
1700;DHT22;847;48.058;7.810;2023-02-28T14:07:46;4.40;80.00
1700;DHT22;847;48.058;7.810;2023-02-28T14:10:24;4.50;80.00
1700;DHT22;847;48.058;7.810;2023-02-28T14:13:11;4.40;79.00
1700;DHT22;847;48.058;7.810;2023-02-28T14:15:55;4.30;79.50
1700;DHT22;847;48.058;7.810;2023-02-28T14:18:33;4.30;79.90
1700;DHT22;847;48.058;7.810;2023-02-28T14:21:16;4.30;79.50
1700;DHT22;847;48.058;7.810;2023-02-28T14:43:18;4.30;79.80
1700;DHT22;847;48.058;7.810;2023-02-28T14:48:55;4.40;78.10
1700;DHT22;847;48.058;7.810;2023-02-28T14:51:23;4.40;78.50
1700;DHT22;847;48.058;7.810;2023-02-28T14:53:57;4.30;78.20
1700;DHT22;847;48.058;7.810;2023-02-28T14:56:37;4.30;79.20
1700;DHT22;847;48.058;7.810;2023-02-28T15:04:33;4.20;78.90
1700;DHT22;847;48.058;7.810;2023-02-28T15:12:14;4.20;79.00
1700;DHT22;847;48.058;7.810;2023-02-28T15:14:44;4.10;78.70
1700;DHT22;847;48.058;7.810;2023-02-28T15:17:22;4.10;79.60
1700;DHT22;847;48.058;7.810;2023-02-28T15:19:54;4.10;79.10
1700;DHT22;847;48.058;7.810;2023-02-28T15:22:34;4.20;79.30
1700;DHT22;847;48.058;7.810;2023-02-28T15:25:05;4.20;78.50
1700;DHT22;847;48.058;7.810;2023-02-28T15:27:39;4.10;78.70
1700;DHT22;847;48.058;7.810;2023-02-28T15:30:18;4.10;79.00
1700;DHT22;847;48.058;7.810;2023-02-28T15:40:38;4.20;79.10
1700;DHT22;847;48.058;7.810;2023-02-28T15:43:15;4.10;78.60
1700;DHT22;847;48.058;7.810;2023-02-28T15:48:24;4.10;78.00
1700;DHT22;847;48.058;7.810;2023-02-28T15:51:16;4.20;78.20
1700;DHT22;847;48.058;7.810;2023-02-28T15:53:54;4.20;78.60
1700;DHT22;847;48.058;7.810;2023-02-28T15:56:45;4.30;77.90
1700;DHT22;847;48.058;7.810;2023-02-28T15:59:19;4.30;77.50
1700;DHT22;847;48.058;7.810;2023-02-28T16:07:12;4.40;77.50
1700;DHT22;847;48.058;7.810;2023-02-28T16:09:40;4.50;77.10
1700;DHT22;847;48.058;7.810;2023-02-28T16:12:24;4.50;77.40
1700;DHT22;847;48.058;7.810;2023-02-28T16:40:59;4.30;77.60
1700;DHT22;847;48.058;7.810;2023-02-28T17:37:28;2.90;84.10
1700;DHT22;847;48.058;7.810;2023-02-28T17:40:17;2.90;83.90
1700;DHT22;847;48.058;7.810;2023-02-28T17:42:57;2.80;84.10
1700;DHT22;847;48.058;7.810;2023-02-28T17:45:43;2.80;84.70
1700;DHT22;847;48.058;7.810;2023-02-28T17:48:24;2.80;86.00
1700;DHT22;847;48.058;7.810;2023-02-28T17:51:13;2.80;86.10
1700;DHT22;847;48.058;7.810;2023-02-28T17:53:42;2.80;86.10
1700;DHT22;847;48.058;7.810;2023-02-28T17:56:12;2.80;85.50
1700;DHT22;847;48.058;7.810;2023-02-28T17:58:40;2.70;85.70
1700;DHT22;847;48.058;7.810;2023-02-28T18:01:07;2.70;85.70
1700;DHT22;847;48.058;7.810;2023-02-28T18:03:34;3.00;85.70
1700;DHT22;847;48.058;7.810;2023-02-28T18:06:02;3.90;84.00
1700;DHT22;847;48.058;7.810;2023-02-28T18:08:30;4.40;81.90
1700;DHT22;847;48.058;7.810;2023-02-28T18:11:08;5.40;79.70
1700;DHT22;847;48.058;7.810;2023-02-28T19:41:49;2.70;83.80
1700;DHT22;847;48.058;7.810;2023-02-28T19:44:18;2.80;84.00
1700;DHT22;847;48.058;7.810;2023-02-28T19:46:46;3.20;82.80
1700;DHT22;847;48.058;7.810;2023-02-28T19:49:13;2.90;83.30
1700;DHT22;847;48.058;7.810;2023-02-28T19:51:40;2.90;83.70
1700;DHT22;847;48.058;7.810;2023-02-28T19:54:09;2.40;84.30
1700;DHT22;847;48.058;7.810;2023-02-28T19:56:35;2.10;84.70
1700;DHT22;847;48.058;7.810;2023-02-28T19:59:04;2.00;85.90
1700;DHT22;847;48.058;7.810;2023-02-28T20:01:30;2.20;86.00
1700;DHT22;847;48.058;7.810;2023-02-28T20:03:57;2.40;85.00
1700;DHT22;847;48.058;7.810;2023-02-28T20:06:24;2.70;84.50
1700;DHT22;847;48.058;7.810;2023-02-28T20:08:53;2.40;84.90
1700;DHT22;847;48.058;7.810;2023-02-28T20:11:20;2.40;85.40
1700;DHT22;847;48.058;7.810;2023-02-28T20:13:47;2.60;85.00
1700;DHT22;847;48.058;7.810;2023-02-28T20:16:15;2.80;83.90
1700;DHT22;847;48.058;7.810;2023-02-28T20:18:43;2.50;84.40
1700;DHT22;847;48.058;7.810;2023-02-28T20:21:11;2.30;85.50
1700;DHT22;847;48.058;7.810;2023-02-28T20:23:39;2.20;86.00
1700;DHT22;847;48.058;7.810;2023-02-28T20:26:08;2.10;86.00
1700;DHT22;847;48.058;7.810;2023-02-28T20:28:35;1.90;86.90
1700;DHT22;847;48.058;7.810;2023-02-28T20:31:08;1.90;86.90
1700;DHT22;847;48.058;7.810;2023-02-28T20:33:36;2.00;87.00
1700;DHT22;847;48.058;7.810;2023-02-28T20:36:04;2.60;85.50
1700;DHT22;847;48.058;7.810;2023-02-28T20:38:31;2.60;84.50
1700;DHT22;847;48.058;7.810;2023-02-28T20:40:59;2.20;85.50
1700;DHT22;847;48.058;7.810;2023-02-28T20:43:27;2.10;85.90
1700;DHT22;847;48.058;7.810;2023-02-28T20:45:55;1.80;86.50
1700;DHT22;847;48.058;7.810;2023-02-28T20:48:23;1.60;87.60
1700;DHT22;847;48.058;7.810;2023-02-28T20:50:52;2.10;86.90
1700;DHT22;847;48.058;7.810;2023-02-28T20:53:20;2.00;86.40
1700;DHT22;847;48.058;7.810;2023-02-28T20:55:54;1.80;86.90
1700;DHT22;847;48.058;7.810;2023-02-28T20:58:22;1.80;86.90
1700;DHT22;847;48.058;7.810;2023-02-28T21:00:49;1.90;86.80
1700;DHT22;847;48.058;7.810;2023-02-28T21:03:16;1.70;87.40
1700;DHT22;847;48.058;7.810;2023-02-28T21:05:43;1.80;87.40
1700;DHT22;847;48.058;7.810;2023-02-28T21:08:11;2.00;86.70
1700;DHT22;847;48.058;7.810;2023-02-28T21:10:38;1.90;86.70
1700;DHT22;847;48.058;7.810;2023-02-28T21:13:05;1.50;87.50
1700;DHT22;847;48.058;7.810;2023-02-28T21:15:36;1.40;87.90
1700;DHT22;847;48.058;7.810;2023-02-28T21:18:03;1.40;88.70
1700;DHT22;847;48.058;7.810;2023-02-28T21:20:29;1.40;88.80
1700;DHT22;847;48.058;7.810;2023-02-28T21:22:56;1.40;88.70
1700;DHT22;847;48.058;7.810;2023-02-28T21:25:24;1.30;88.30
1700;DHT22;847;48.058;7.810;2023-02-28T21:27:51;1.10;88.90
1700;DHT22;847;48.058;7.810;2023-02-28T21:30:20;1.30;89.00
1700;DHT22;847;48.058;7.810;2023-02-28T21:32:47;1.30;88.70
1700;DHT22;847;48.058;7.810;2023-02-28T21:35:14;1.20;88.70
1700;DHT22;847;48.058;7.810;2023-02-28T21:37:41;1.10;89.10
1700;DHT22;847;48.058;7.810;2023-02-28T21:40:09;0.90;90.40
1700;DHT22;847;48.058;7.810;2023-02-28T21:42:38;1.10;89.70